Time;durP1;ratioP1;P1;durP2;ratioP2;P2;SDS_P1;SDS_P2;PMS_P1;PMS_P2;Temp;Humidity;BMP_temperature;BMP_pressure;BME280_temperature;BME280_humidity;BME280_pressure;Samples;Min_cycle;Max_cycle;Signal;HPM_P1;HPM_P2
2021/06/17 00:00:07;;;;;;;2.70;2.17;;;27.20;46.30;;;;;;5089325;28;20098;-47
2021/06/17 00:02:34;;;;;;;3.40;2.20;;;27.20;46.30;;;;;;5092393;28;20028;-47
2021/06/17 00:05:00;;;;;;;2.75;2.25;;;27.20;46.40;;;;;;5091856;28;20028;-47
2021/06/17 00:07:26;;;;;;;2.50;2.30;;;27.20;46.40;;;;;;5085631;28;20077;-49
2021/06/17 00:09:52;;;;;;;3.40;2.50;;;27.20;46.40;;;;;;5089350;28;20473;-53
2021/06/17 00:12:17;;;;;;;4.15;2.42;;;27.20;46.50;;;;;;5088408;28;20028;-46
2021/06/17 00:14:43;;;;;;;3.30;2.30;;;27.20;46.40;;;;;;5087547;28;20107;-47
2021/06/17 00:17:09;;;;;;;2.70;2.00;;;27.20;46.50;;;;;;5092663;28;20020;-48
2021/06/17 00:19:35;;;;;;;2.65;2.25;;;27.20;46.50;;;;;;5086817;28;20706;-51
2021/06/17 00:22:01;;;;;;;2.30;2.10;;;27.20;46.50;;;;;;5084932;28;20104;-50
2021/06/17 00:24:27;;;;;;;2.53;2.30;;;27.20;46.50;;;;;;5081722;28;20021;-48
2021/06/17 00:26:53;;;;;;;2.60;2.40;;;27.20;46.50;;;;;;5092986;28;20024;-50
2021/06/17 00:29:19;;;;;;;2.53;2.33;;;27.20;46.60;;;;;;5086924;28;20021;-47
2021/06/17 00:31:45;;;;;;;2.63;2.30;;;27.20;46.60;;;;;;5091517;28;20351;-54
2021/06/17 00:34:11;;;;;;;3.03;2.58;;;27.20;46.70;;;;;;5088154;28;20020;-54
2021/06/17 00:36:38;;;;;;;2.42;2.22;;;27.10;46.60;;;;;;5091613;28;20040;-48
2021/06/17 00:39:05;;;;;;;2.78;2.35;;;27.10;46.60;;;;;;5086612;28;20395;-48
2021/06/17 00:41:32;;;;;;;2.50;2.30;;;27.10;46.60;;;;;;5089667;28;20035;-49
2021/06/17 00:43:57;;;;;;;3.28;2.38;;;27.10;47.30;;;;;;5090696;28;20119;-54
2021/06/17 00:46:23;;;;;;;3.13;2.53;;;27.20;46.80;;;;;;5083034;28;20103;-50
2021/06/17 00:48:49;;;;;;;3.17;2.38;;;27.10;46.70;;;;;;5087227;28;20043;-49
2021/06/17 00:51:15;;;;;;;3.08;2.40;;;27.10;46.80;;;;;;5086649;28;20020;-48
2021/06/17 00:53:42;;;;;;;3.05;2.63;;;27.20;46.80;;;;;;5081074;28;20451;-52
2021/06/17 00:56:08;;;;;;;3.42;2.38;;;27.20;46.90;;;;;;5085372;28;20376;-51
2021/06/17 00:58:34;;;;;;;2.58;2.35;;;27.20;46.90;;;;;;5084734;28;20131;-52
2021/06/17 01:01:00;;;;;;;2.95;2.75;;;27.20;46.90;;;;;;5086036;28;20024;-54
2021/06/17 01:03:26;;;;;;;2.80;2.30;;;27.20;46.90;;;;;;5088037;28;20351;-49
2021/06/17 01:05:52;;;;;;;3.40;2.72;;;27.10;46.90;;;;;;5088575;28;20111;-53
2021/06/17 01:08:37;;;;;;;2.47;2.28;;;27.20;47.00;;;;;;5092433;28;20020;-50
2021/06/17 01:11:12;;;;;;;2.20;2.00;;;27.10;46.90;;;;;;5086310;28;20048;-49
2021/06/17 01:13:53;;;;;;;2.55;2.35;;;27.10;47.00;;;;;;5090811;28;20020;-48
2021/06/17 01:16:38;;;;;;;3.08;2.50;;;27.10;47.00;;;;;;5088946;28;20519;-50
2021/06/17 01:19:28;;;;;;;2.60;2.40;;;27.10;47.00;;;;;;5084940;28;20371;-48
2021/06/17 01:22:18;;;;;;;2.97;2.55;;;27.10;47.10;;;;;;5087923;28;20036;-52
2021/06/17 01:25:02;;;;;;;2.70;2.40;;;27.10;47.10;;;;;;5083778;28;20035;-51
2021/06/17 01:27:53;;;;;;;2.40;2.17;;;27.10;47.10;;;;;;5085727;28;20039;-52
2021/06/17 01:30:20;;;;;;;2.88;2.58;;;27.10;47.10;;;;;;5083795;28;20067;-47
2021/06/17 01:32:50;;;;;;;2.92;2.35;;;27.00;47.10;;;;;;5081144;28;20351;-50
2021/06/17 01:35:20;;;;;;;2.75;2.38;;;27.10;47.20;;;;;;5090084;28;20477;-52
2021/06/17 01:37:50;;;;;;;3.13;2.33;;;27.10;47.20;;;;;;5087327;28;20358;-50
2021/06/17 01:40:16;;;;;;;2.97;2.67;;;27.10;47.30;;;;;;5089778;28;20083;-55
2021/06/17 01:42:43;;;;;;;3.00;2.72;;;27.10;47.30;;;;;;5088477;28;20050;-51
2021/06/17 01:45:10;;;;;;;3.15;2.40;;;27.10;47.30;;;;;;5087230;28;20323;-51
2021/06/17 01:47:37;;;;;;;2.92;2.63;;;27.10;47.40;;;;;;5084033;28;20028;-52
2021/06/17 01:50:05;;;;;;;3.40;2.50;;;27.10;47.40;;;;;;5085011;28;20032;-53
2021/06/17 01:52:33;;;;;;;2.58;2.38;;;27.00;47.40;;;;;;5084508;28;20020;-54
2021/06/17 01:55:00;;;;;;;2.60;2.40;;;27.10;47.50;;;;;;5088140;28;20036;-51
2021/06/17 01:57:27;;;;;;;3.00;2.40;;;27.00;47.40;;;;;;5083050;28;20036;-51
2021/06/17 01:59:54;;;;;;;2.67;2.47;;;27.00;47.50;;;;;;5090114;28;20047;-51
2021/06/17 02:02:21;;;;;;;3.15;2.85;;;27.10;47.50;;;;;;5086468;28;20032;-54
2021/06/17 02:04:49;;;;;;;2.88;2.65;;;27.00;47.50;;;;;;5087666;28;20024;-50
2021/06/17 02:07:17;;;;;;;3.00;2.70;;;27.00;47.50;;;;;;5085428;28;20056;-53
2021/06/17 02:09:45;;;;;;;3.05;2.75;;;27.00;47.60;;;;;;5079090;28;20138;-52
2021/06/17 02:12:11;;;;;;;2.92;2.63;;;27.00;47.70;;;;;;5087369;28;20031;-50
2021/06/17 02:14:38;;;;;;;4.53;2.42;;;27.00;47.70;;;;;;5090085;28;20020;-52
2021/06/17 02:17:07;;;;;;;3.22;2.55;;;27.00;47.70;;;;;;5089279;28;20034;-49
2021/06/17 02:19:34;;;;;;;2.97;2.60;;;27.00;47.80;;;;;;5087977;28;20059;-50
2021/06/17 02:22:01;;;;;;;3.40;3.10;;;27.00;47.80;;;;;;5085700;28;20036;-48
2021/06/17 02:24:28;;;;;;;2.92;2.55;;;27.00;47.80;;;;;;5086933;28;20043;-48
2021/06/17 02:26:59;;;;;;;3.10;2.80;;;27.00;47.90;;;;;;5084537;28;20028;-52
2021/06/17 02:29:28;;;;;;;3.17;2.70;;;27.00;47.90;;;;;;5088677;28;20089;-49
2021/06/17 02:31:57;;;;;;;2.85;2.55;;;27.00;47.90;;;;;;5088734;28;20136;-51
2021/06/17 02:34:24;;;;;;;2.80;2.60;;;27.00;47.90;;;;;;5088730;28;20452;-53
2021/06/17 02:36:52;;;;;;;2.50;2.25;;;27.00;47.90;;;;;;5081431;28;20033;-49
2021/06/17 02:39:23;;;;;;;2.83;2.30;;;27.00;48.00;;;;;;5085066;28;20047;-50
2021/06/17 02:41:55;;;;;;;2.83;2.63;;;27.00;48.00;;;;;;5086179;28;20035;-49
2021/06/17 02:44:28;;;;;;;3.08;2.72;;;27.00;48.00;;;;;;5085509;28;20032;-50
2021/06/17 02:46:55;;;;;;;3.38;3.08;;;27.00;48.10;;;;;;5081850;28;20032;-47
2021/06/17 02:49:22;;;;;;;3.00;2.75;;;27.00;48.10;;;;;;5083982;28;20034;-51
2021/06/17 02:51:48;;;;;;;5.03;3.08;;;27.00;48.10;;;;;;5082939;28;20028;-49
2021/06/17 02:54:19;;;;;;;3.05;2.75;;;27.00;48.20;;;;;;5084033;28;20563;-49
2021/06/17 02:57:14;;;;;;;3.10;2.78;;;27.00;48.20;;;;;;5088180;28;21800;-52
2021/06/17 03:00:07;;;;;;;3.03;2.72;;;27.00;48.20;;;;;;5081648;28;20090;-47
2021/06/17 03:02:51;;;;;;;2.90;2.70;;;27.00;48.30;;;;;;5083990;28;20020;-53
2021/06/17 03:05:20;;;;;;;;;;;27.00;48.30;;;;;;5088596;28;20027;-54
2021/06/17 03:08:05;;;;;;;3.08;2.75;;;26.90;48.30;;;;;;5084534;28;19930;-47
2021/06/17 03:10:32;;;;;;;4.07;2.75;;;26.90;48.30;;;;;;5085406;28;20032;-50
2021/06/17 03:13:02;;;;;;;3.22;2.92;;;26.90;48.30;;;;;;5084365;28;20017;-54
2021/06/17 03:15:34;;;;;;;3.65;3.17;;;26.90;48.30;;;;;;5082665;28;20047;-50
2021/06/17 03:18:03;;;;;;;3.20;2.90;;;26.90;48.40;;;;;;5085900;28;20035;-50
2021/06/17 03:20:38;;;;;;;3.95;3.08;;;26.90;48.50;;;;;;5083567;28;20068;-51
2021/06/17 03:23:07;;;;;;;3.25;2.95;;;26.90;48.40;;;;;;5091721;28;20443;-48
2021/06/17 03:25:36;;;;;;;3.55;3.20;;;26.90;48.50;;;;;;5095655;28;20071;-49
2021/06/17 03:28:03;;;;;;;3.95;3.00;;;26.90;48.50;;;;;;5091857;28;20447;-49
2021/06/17 03:30:30;;;;;;;3.35;3.03;;;26.90;48.50;;;;;;5093168;28;20130;-49
2021/06/17 03:32:58;;;;;;;3.45;3.08;;;26.90;48.60;;;;;;5089280;28;20028;-47
2021/06/17 03:35:28;;;;;;;3.20;2.90;;;26.90;48.60;;;;;;5091915;28;20173;-48
2021/06/17 03:37:56;;;;;;;3.38;2.90;;;26.90;48.60;;;;;;5089340;28;20024;-48
2021/06/17 03:40:23;;;;;;;3.33;3.03;;;26.90;48.70;;;;;;5093871;28;20028;-52
2021/06/17 03:42:51;;;;;;;3.30;3.00;;;26.90;48.70;;;;;;5093377;28;20454;-53
2021/06/17 03:45:19;;;;;;;3.72;3.28;;;26.90;48.70;;;;;;5094943;28;20036;-47
2021/06/17 03:47:47;;;;;;;3.70;3.33;;;26.90;48.70;;;;;;5091211;28;20046;-49
2021/06/17 03:50:15;;;;;;;4.07;3.53;;;26.90;48.70;;;;;;5092617;28;20024;-49
2021/06/17 03:52:45;;;;;;;3.78;3.47;;;26.90;48.70;;;;;;5091547;28;20062;-50
2021/06/17 03:55:16;;;;;;;3.45;3.15;;;26.90;48.70;;;;;;5090987;28;20040;-54
2021/06/17 03:57:43;;;;;;;3.75;3.35;;;26.90;48.80;;;;;;5092544;28;20051;-53
2021/06/17 04:00:11;;;;;;;3.40;3.10;;;26.90;48.80;;;;;;5092595;28;20036;-50
2021/06/17 04:02:38;;;;;;;3.75;3.15;;;26.90;48.80;;;;;;5086850;28;20040;-48
2021/06/17 04:05:06;;;;;;;3.65;3.30;;;26.90;48.80;;;;;;5089860;28;20436;-48
2021/06/17 04:07:34;;;;;;;3.83;2.88;;;26.90;48.90;;;;;;5095218;28;20024;-50
2021/06/17 04:10:00;;;;;;;4.15;3.55;;;26.90;48.90;;;;;;5095463;28;20413;-48
2021/06/17 04:12:29;;;;;;;4.20;3.20;;;26.90;48.90;;;;;;5091973;28;20483;-46
2021/06/17 04:14:58;;;;;;;3.60;3.30;;;26.90;48.90;;;;;;5087991;28;20046;-51
2021/06/17 04:17:29;;;;;;;3.28;2.97;;;26.90;48.90;;;;;;5088484;28;20449;-50
2021/06/17 04:19:58;;;;;;;3.75;3.45;;;27.00;49.00;;;;;;5087361;28;20387;-47
2021/06/17 04:22:26;;;;;;;3.70;3.40;;;26.90;48.90;;;;;;5093639;28;20032;-49
2021/06/17 04:25:00;;;;;;;3.47;3.17;;;26.90;49.00;;;;;;5089966;28;20123;-50
2021/06/17 04:27:27;;;;;;;3.70;3.40;;;26.90;49.00;;;;;;5089474;28;20054;-49
2021/06/17 04:29:54;;;;;;;3.67;3.28;;;26.90;49.00;;;;;;5091496;28;20042;-51
2021/06/17 04:32:21;;;;;;;3.63;3.33;;;26.90;49.00;;;;;;5090229;28;20035;-51
2021/06/17 04:34:48;;;;;;;4.10;3.10;;;26.90;49.00;;;;;;5086667;28;20081;-50
2021/06/17 04:37:19;;;;;;;3.75;3.38;;;26.90;49.00;;;;;;5086214;28;20455;-49
2021/06/17 04:39:45;;;;;;;3.60;3.25;;;26.90;49.10;;;;;;5090377;28;20040;-53
2021/06/17 04:42:13;;;;;;;3.72;3.30;;;26.90;49.00;;;;;;5092048;28;20020;-51
2021/06/17 04:44:41;;;;;;;3.85;3.45;;;26.90;49.10;;;;;;5086620;28;20464;-48
2021/06/17 04:47:08;;;;;;;3.88;3.47;;;26.90;49.10;;;;;;5084434;28;20036;-53
2021/06/17 04:49:38;;;;;;;4.07;3.50;;;26.90;49.10;;;;;;5085315;28;20047;-53
2021/06/17 04:52:12;;;;;;;3.95;3.20;;;26.90;49.10;;;;;;5086675;28;20469;-49
2021/06/17 04:54:38;;;;;;;3.60;3.30;;;26.90;49.10;;;;;;5087564;28;20450;-50
2021/06/17 04:57:04;;;;;;;3.50;3.20;;;26.90;49.10;;;;;;5088645;28;20038;-49
2021/06/17 04:59:30;;;;;;;3.67;3.38;;;26.90;49.10;;;;;;5087125;28;20020;-47
2021/06/17 05:01:57;;;;;;;4.10;3.58;;;26.90;49.10;;;;;;5085527;28;20034;-50
2021/06/17 05:04:22;;;;;;;3.65;3.35;;;26.90;49.10;;;;;;5086729;28;20028;-48
2021/06/17 05:07:11;;;;;;;4.00;3.30;;;26.90;49.10;;;;;;5084476;28;21447;-49
2021/06/17 05:12:22;;;;;;;3.70;3.40;;;26.90;49.10;;;;;;5088678;28;20032;-47
2021/06/17 05:14:48;;;;;;;3.28;2.95;;;26.90;49.10;;;;;;5086360;28;20404;-49
2021/06/17 05:17:14;;;;;;;3.22;2.92;;;27.00;49.20;;;;;;5083976;28;20021;-48
2021/06/17 05:19:40;;;;;;;4.18;3.35;;;26.90;49.10;;;;;;5090456;28;20048;-52
2021/06/17 05:22:09;;;;;;;3.30;3.03;;;27.00;49.20;;;;;;5088290;28;20039;-50
2021/06/17 05:24:34;;;;;;;3.63;3.20;;;26.90;49.20;;;;;;5087692;28;20063;-50
2021/06/17 05:27:00;;;;;;;4.32;3.22;;;27.00;49.20;;;;;;5087471;28;20463;-48
2021/06/17 05:29:28;;;;;;;4.30;3.22;;;26.90;49.20;;;;;;5085006;28;20110;-47
2021/06/17 05:31:54;;;;;;;3.53;3.17;;;27.00;49.20;;;;;;5089373;28;20118;-50
2021/06/17 05:34:20;;;;;;;3.55;3.20;;;27.00;49.30;;;;;;5089328;28;20032;-49
2021/06/17 05:36:46;;;;;;;3.50;3.20;;;26.90;49.30;;;;;;5086960;28;20035;-51
2021/06/17 05:39:12;;;;;;;3.75;3.30;;;27.00;49.30;;;;;;5092255;28;20024;-47
2021/06/17 05:41:39;;;;;;;3.38;2.97;;;27.00;49.30;;;;;;5085887;28;20088;-48
2021/06/17 05:44:05;;;;;;;4.38;3.40;;;27.00;49.30;;;;;;5085638;28;20193;-52
2021/06/17 05:46:33;;;;;;;3.80;3.38;;;27.00;49.30;;;;;;5084976;28;20510;-53
2021/06/17 05:48:59;;;;;;;4.10;3.25;;;27.00;49.30;;;;;;5084078;28;20396;-54
2021/06/17 05:51:25;;;;;;;5.13;3.35;;;27.00;49.30;;;;;;5090022;28;20038;-48
2021/06/17 05:53:50;;;;;;;3.60;3.20;;;27.00;49.30;;;;;;5090204;28;20479;-50
2021/06/17 05:56:18;;;;;;;3.90;3.25;;;27.00;49.30;;;;;;5090311;28;20127;-50
2021/06/17 05:58:45;;;;;;;3.95;3.47;;;27.00;49.40;;;;;;5088169;28;20542;-51
2021/06/17 06:01:11;;;;;;;4.07;3.35;;;27.00;49.30;;;;;;5087275;28;20070;-53
2021/06/17 06:03:37;;;;;;;6.60;3.10;;;27.00;49.30;;;;;;5084026;28;20439;-47
2021/06/17 06:06:03;;;;;;;3.67;2.97;;;27.00;49.30;;;;;;5085476;28;20373;-47
2021/06/17 06:08:28;;;;;;;3.45;3.15;;;27.00;49.20;;;;;;5083665;28;20043;-50
2021/06/17 06:10:54;;;;;;;4.15;3.40;;;27.00;49.30;;;;;;5090341;28;20042;-50
2021/06/17 06:13:20;;;;;;;3.83;3.42;;;27.00;49.20;;;;;;5084492;28;20024;-48
2021/06/17 06:15:46;;;;;;;3.38;2.90;;;27.00;49.10;;;;;;5086648;28;20127;-48
2021/06/17 06:18:14;;;;;;;4.20;3.40;;;27.00;49.70;;;;;;5087283;28;20066;-50
2021/06/17 06:20:42;;;;;;;3.92;3.10;;;27.00;49.00;;;;;;5092714;28;20051;-54
2021/06/17 06:23:08;;;;;;;2.95;2.72;;;27.00;49.00;;;;;;5091149;28;20092;-47
2021/06/17 06:25:36;;;;;;;3.97;2.78;;;27.00;49.00;;;;;;5089455;28;20028;-53
2021/06/17 06:28:02;;;;;;;4.03;3.03;;;27.00;48.90;;;;;;5081026;28;20059;-51
2021/06/17 06:30:29;;;;;;;3.08;2.78;;;27.00;48.90;;;;;;5087372;28;20040;-55
2021/06/17 06:32:55;;;;;;;3.42;3.08;;;27.00;48.90;;;;;;5083687;28;20121;-56
2021/06/17 06:35:24;;;;;;;4.22;3.00;;;27.00;48.90;;;;;;5083123;28;20048;-49
2021/06/17 06:37:50;;;;;;;3.25;2.75;;;27.10;48.90;;;;;;5091340;28;20028;-49
2021/06/17 06:40:23;;;;;;;3.05;2.75;;;27.00;48.80;;;;;;5088949;28;20039;-56
2021/06/17 06:42:49;;;;;;;3.83;3.47;;;27.10;48.80;;;;;;5081667;28;20028;-53
2021/06/17 06:45:15;;;;;;;4.32;3.50;;;27.10;48.80;;;;;;5092657;28;20019;-48
2021/06/17 06:47:41;;;;;;;3.33;3.03;;;27.10;48.90;;;;;;5092621;28;20122;-52
2021/06/17 06:50:07;;;;;;;3.42;3.00;;;27.10;48.90;;;;;;5091344;28;20395;-53
2021/06/17 06:52:33;;;;;;;4.38;3.13;;;27.10;48.90;;;;;;5092632;28;20032;-47
2021/06/17 06:54:59;;;;;;;3.80;3.40;;;27.10;48.90;;;;;;5092398;28;20411;-50
2021/06/17 06:57:29;;;;;;;3.83;3.10;;;27.10;48.90;;;;;;5091755;28;20024;-53
2021/06/17 06:59:55;;;;;;;3.83;3.40;;;27.10;48.90;;;;;;5092450;28;20024;-53
2021/06/17 07:02:20;;;;;;;4.35;3.53;;;27.10;48.90;;;;;;5091994;28;20076;-51
2021/06/17 07:04:47;;;;;;;3.88;2.83;;;27.20;49.00;;;;;;5092114;28;20028;-55
2021/06/17 07:07:13;;;;;;;3.53;3.22;;;27.20;48.90;;;;;;5092173;28;20493;-50
2021/06/17 07:09:39;;;;;;;5.32;3.30;;;27.10;48.90;;;;;;5090266;28;20020;-53
2021/06/17 07:12:05;;;;;;;4.13;3.67;;;27.20;48.90;;;;;;5085005;28;20340;-47
2021/06/17 07:14:32;;;;;;;6.90;3.40;;;27.10;48.90;;;;;;5079985;28;20032;-54
2021/06/17 07:16:59;;;;;;;3.33;3.00;;;27.20;48.90;;;;;;5079551;28;20047;-52
2021/06/17 07:19:24;;;;;;;4.03;3.63;;;27.20;48.90;;;;;;5087134;28;20197;-50
2021/06/17 07:21:51;;;;;;;3.92;3.53;;;27.20;48.90;;;;;;5087805;28;20091;-52
2021/06/17 07:24:16;;;;;;;3.53;3.22;;;27.20;48.90;;;;;;5085919;28;20387;-53
2021/06/17 07:26:43;;;;;;;3.28;2.97;;;27.20;48.90;;;;;;5090845;28;20164;-48
2021/06/17 07:29:09;;;;;;;3.35;3.05;;;27.20;48.90;;;;;;5083610;28;20043;-52
2021/06/17 07:31:36;;;;;;;4.32;3.55;;;27.20;48.90;;;;;;5086961;28;20051;-48
2021/06/17 07:34:03;;;;;;;3.53;3.17;;;27.20;48.80;;;;;;5087948;28;20034;-50
2021/06/17 07:36:29;;;;;;;3.42;3.10;;;27.20;48.90;;;;;;5083607;28;20097;-47
2021/06/17 07:38:55;;;;;;;3.58;3.05;;;27.20;48.90;;;;;;5085350;28;20024;-52
2021/06/17 07:41:21;;;;;;;3.63;3.25;;;27.20;48.90;;;;;;5091633;28;20030;-53
2021/06/17 07:43:47;;;;;;;3.80;3.13;;;27.30;48.90;;;;;;5092592;28;20044;-53
2021/06/17 07:46:13;;;;;;;4.85;3.28;;;27.30;48.90;;;;;;5091774;28;20113;-54
2021/06/17 07:48:39;;;;;;;3.38;3.05;;;27.30;48.90;;;;;;5091641;28;20020;-50
2021/06/17 07:51:07;;;;;;;6.80;2.72;;;27.30;48.90;;;;;;5088350;28;20024;-52
2021/06/17 07:53:34;;;;;;;3.08;2.80;;;27.30;48.80;;;;;;5091173;28;20340;-47
2021/06/17 07:56:00;;;;;;;3.13;2.65;;;27.30;48.70;;;;;;5092068;28;20040;-48
2021/06/17 07:58:26;;;;;;;3.67;2.65;;;27.30;48.70;;;;;;5091797;28;20059;-49
2021/06/17 08:00:52;;;;;;;3.58;2.90;;;27.30;48.70;;;;;;5090584;28;20028;-45
2021/06/17 08:03:17;;;;;;;2.88;2.40;;;27.30;48.60;;;;;;5091487;28;20028;-52
2021/06/17 08:05:43;;;;;;;7.05;3.05;;;27.30;48.60;;;;;;5091884;28;20122;-50
2021/06/17 08:08:09;;;;;;;2.83;2.53;;;27.30;48.50;;;;;;5094836;28;20042;-50
2021/06/17 08:10:36;;;;;;;4.38;2.80;;;27.30;48.50;;;;;;5095483;28;20430;-49
2021/06/17 08:13:01;;;;;;;2.67;2.13;;;27.30;48.40;;;;;;5095672;28;20055;-51
2021/06/17 08:15:28;;;;;;;2.70;2.50;;;27.30;48.40;;;;;;5093317;28;20064;-49
2021/06/17 08:17:54;;;;;;;3.10;2.38;;;27.40;48.40;;;;;;5095575;28;20110;-51
2021/06/17 08:20:20;;;;;;;2.53;2.33;;;27.30;48.30;;;;;;5095155;28;20540;-51
2021/06/17 08:22:46;;;;;;;3.30;2.38;;;27.40;48.30;;;;;;5095571;28;20074;-50
2021/06/17 08:25:12;;;;;;;2.75;2.20;;;27.30;48.20;;;;;;5095581;28;20059;-49
2021/06/17 08:27:39;;;;;;;2.72;2.53;;;27.40;48.20;;;;;;5092821;28;20024;-47
2021/06/17 08:30:11;;;;;;;2.30;2.10;;;27.40;48.10;;;;;;5095138;28;20127;-53
2021/06/17 08:32:37;;;;;;;2.40;2.10;;;27.40;48.10;;;;;;5094632;28;20074;-50
2021/06/17 08:35:04;;;;;;;4.20;2.83;;;27.30;48.00;;;;;;5089521;28;20024;-51
2021/06/17 08:37:30;;;;;;;2.22;2.03;;;27.40;48.00;;;;;;5087816;28;20342;-48
2021/06/17 08:39:57;;;;;;;3.00;2.50;;;27.40;47.90;;;;;;5094018;28;20024;-50
2021/06/17 08:42:28;;;;;;;2.60;2.15;;;27.40;47.80;;;;;;5088006;28;20038;-52
2021/06/17 08:44:55;;;;;;;2.45;2.20;;;27.40;47.80;;;;;;5089384;28;20085;-50
2021/06/17 08:47:22;;;;;;;2.45;2.20;;;27.40;47.70;;;;;;5089863;28;20031;-52
2021/06/17 08:49:51;;;;;;;4.25;1.95;;;27.40;47.70;;;;;;5092024;28;20088;-49
2021/06/17 08:52:19;;;;;;;2.47;2.00;;;27.40;47.70;;;;;;5094999;28;20028;-55
2021/06/17 08:54:45;;;;;;;2.67;2.13;;;27.40;47.80;;;;;;5094467;28;20044;-52
2021/06/17 08:57:11;;;;;;;2.15;1.95;;;27.40;47.70;;;;;;5090585;28;20036;-55
2021/06/17 08:59:38;;;;;;;3.53;1.98;;;27.40;47.70;;;;;;5087062;28;20024;-53
2021/06/17 09:02:05;;;;;;;2.15;1.92;;;27.40;47.70;;;;;;5091064;28;20043;-50
2021/06/17 09:04:31;;;;;;;3.20;1.90;;;27.50;47.70;;;;;;5084009;28;20028;-51
2021/06/17 09:07:06;;;;;;;3.00;2.15;;;27.50;47.70;;;;;;5086708;28;20342;-52
2021/06/17 09:09:46;;;;;;;2.63;2.03;;;27.50;47.70;;;;;;5090916;28;20028;-51
2021/06/17 09:12:19;;;;;;;2.28;1.83;;;27.50;47.60;;;;;;5091861;28;20371;-49
2021/06/17 09:14:57;;;;;;;3.33;2.13;;;27.50;47.60;;;;;;5089325;28;20032;-54
2021/06/17 09:17:23;;;;;;;2.20;2.00;;;27.50;47.50;;;;;;5087599;28;20140;-48
2021/06/17 09:19:52;;;;;;;2.03;1.83;;;27.50;47.50;;;;;;5088187;28;20102;-49
2021/06/17 09:22:24;;;;;;;2.13;1.73;;;27.50;47.50;;;;;;5089886;28;20059;-49
2021/06/17 09:24:53;;;;;;;2.22;2.03;;;27.50;47.40;;;;;;5091481;28;20028;-50
2021/06/17 09:27:19;;;;;;;2.13;1.88;;;27.50;47.40;;;;;;5089434;28;20028;-55
2021/06/17 09:29:45;;;;;;;3.13;2.00;;;27.50;47.40;;;;;;5088461;28;20161;-53
2021/06/17 09:32:18;;;;;;;2.00;1.80;;;27.50;47.40;;;;;;5088056;28;20107;-51
2021/06/17 09:34:45;;;;;;;2.57;2.20;;;27.50;47.50;;;;;;5090705;28;20028;-51
2021/06/17 09:37:35;;;;;;;2.28;2.08;;;27.50;47.50;;;;;;5088616;28;20801;-48
2021/06/17 09:40:21;;;;;;;2.28;2.08;;;27.50;47.50;;;;;;5092105;28;20063;-50
2021/06/17 09:42:48;;;;;;;2.75;1.90;;;27.50;47.50;;;;;;5090701;28;20683;-49
2021/06/17 09:45:22;;;;;;;4.22;2.13;;;27.40;47.50;;;;;;5091300;28;20024;-56
2021/06/17 09:47:49;;;;;;;2.03;1.88;;;27.40;47.30;;;;;;5092060;28;20044;-53
2021/06/17 09:50:28;;;;;;;2.15;1.95;;;27.50;47.40;;;;;;5093369;28;20369;-54
2021/06/17 09:52:56;;;;;;;2.55;2.35;;;27.50;47.20;;;;;;5090003;28;20024;-51
2021/06/17 09:55:44;;;;;;;2.20;2.00;;;27.40;47.10;;;;;;5090745;28;20495;-56
2021/06/17 09:58:37;;;;;;;2.50;2.30;;;27.50;47.10;;;;;;5093606;28;20024;-57
2021/06/17 10:01:11;;;;;;;;;;;27.50;47.10;;;;;;5092990;28;20039;-51
2021/06/17 10:03:37;;;;;;;2.72;1.85;;;27.40;47.00;;;;;;5093587;28;20345;-51
2021/06/17 10:06:16;;;;;;;1.67;1.58;;;27.50;47.00;;;;;;5094331;28;20440;-52
2021/06/17 10:08:44;;;;;;;2.10;1.90;;;27.50;46.90;;;;;;5095612;28;20024;-53
2021/06/17 10:11:10;;;;;;;2.20;2.00;;;27.50;46.80;;;;;;5095606;28;20024;-52
2021/06/17 10:13:38;;;;;;;2.35;2.03;;;27.50;46.80;;;;;;5095245;28;20107;-48
2021/06/17 10:16:05;;;;;;;2.80;2.38;;;27.50;46.70;;;;;;5094718;28;20093;-49
2021/06/17 10:18:32;;;;;;;2.33;2.13;;;27.50;46.60;;;;;;5095131;28;20032;-50
2021/06/17 10:20:58;;;;;;;2.33;2.13;;;27.50;46.60;;;;;;5095137;28;20316;-54
2021/06/17 10:23:25;;;;;;;2.00;1.90;;;27.50;46.50;;;;;;5095088;28;20028;-46
2021/06/17 10:25:51;;;;;;;1.92;1.65;;;27.50;46.40;;;;;;5095520;28;20024;-49
2021/06/17 10:28:43;;;;;;;2.40;1.90;;;27.50;46.40;;;;;;5094934;28;20047;-49
2021/06/17 10:31:09;;;;;;;1.63;1.52;;;27.50;46.30;;;;;;5094211;28;20059;-50
2021/06/17 10:33:38;;;;;;;2.30;1.88;;;27.50;46.30;;;;;;5095066;28;20028;-48
2021/06/17 10:36:22;;;;;;;2.08;1.88;;;27.50;46.30;;;;;;5094896;28;20463;-51
2021/06/17 10:39:12;;;;;;;2.13;1.90;;;27.50;46.20;;;;;;5094388;28;20040;-54
2021/06/17 10:41:47;;;;;;;1.80;1.70;;;27.50;46.20;;;;;;5094508;28;20042;-50
2021/06/17 10:44:50;;;;;;;1.88;1.77;;;27.50;46.10;;;;;;5094786;28;20035;-50
2021/06/17 10:50:21;;;;;;;2.20;2.00;;;27.50;46.10;;;;;;5094698;28;20097;-52
2021/06/17 10:52:52;;;;;;;1.77;1.67;;;27.50;46.10;;;;;;5094630;28;20032;-54
2021/06/17 10:55:21;;;;;;;2.22;2.00;;;27.50;46.10;;;;;;5094383;28;20082;-48
2021/06/17 11:02:57;;;;;;;2.20;2.00;;;27.60;46.10;;;;;;5093924;28;20103;-52
2021/06/17 11:05:35;;;;;;;2.15;1.95;;;27.50;46.10;;;;;;5093269;28;20343;-52
2021/06/17 11:08:16;;;;;;;1.85;1.75;;;27.60;46.10;;;;;;5094426;28;20063;-52
2021/06/17 11:11:02;;;;;;;1.90;1.80;;;27.60;46.10;;;;;;5094412;28;20028;-56
2021/06/17 11:13:48;;;;;;;2.30;1.90;;;27.60;46.10;;;;;;5094254;28;20076;-52
2021/06/17 11:16:14;;;;;;;1.90;1.80;;;27.60;46.10;;;;;;5094078;28;20352;-52
2021/06/17 11:21:23;;;;;;;2.40;2.00;;;27.60;46.10;;;;;;5093805;28;20093;-52
2021/06/17 11:24:00;;;;;;;2.05;1.90;;;27.60;46.10;;;;;;5093534;28;20104;-55
2021/06/17 11:26:41;;;;;;;2.50;2.10;;;27.60;46.10;;;;;;5094484;28;20050;-52
2021/06/17 11:29:12;;;;;;;2.00;1.80;;;27.60;46.10;;;;;;5093791;28;20462;-53
2021/06/17 11:31:49;;;;;;;2.00;1.80;;;27.60;46.10;;;;;;5094150;28;20034;-50
2021/06/17 11:34:32;;;;;;;1.88;1.75;;;27.60;46.20;;;;;;5093091;28;20032;-54
2021/06/17 11:37:02;;;;;;;2.35;2.05;;;27.60;46.20;;;;;;5092934;28;20071;-55
2021/06/17 11:39:30;;;;;;;2.85;1.75;;;27.60;46.80;;;;;;5093957;28;20398;-54
2021/06/17 11:41:59;;;;;;;2.60;2.20;;;27.60;46.20;;;;;;5094413;28;20115;-54
2021/06/17 11:44:27;;;;;;;2.00;1.80;;;27.60;46.20;;;;;;5098316;28;20043;-55
2021/06/17 11:47:11;;;;;;;2.17;1.98;;;27.60;46.20;;;;;;5097706;28;20346;-50
2021/06/17 11:49:45;;;;;;;2.25;2.05;;;27.60;46.20;;;;;;5098027;28;20443;-54
2021/06/17 11:52:19;;;;;;;2.22;1.92;;;27.60;46.20;;;;;;5097894;28;20036;-54
2021/06/17 11:54:47;;;;;;;2.28;2.08;;;27.60;46.30;;;;;;5097825;28;20043;-52
2021/06/17 11:57:15;;;;;;;2.33;1.83;;;27.70;46.40;;;;;;5097579;28;20074;-49
2021/06/17 11:59:48;;;;;;;2.63;2.13;;;27.70;46.40;;;;;;5097378;28;20034;-54
2021/06/17 12:02:23;;;;;;;2.33;2.13;;;27.70;46.40;;;;;;5097528;28;20053;-52
2021/06/17 12:05:03;;;;;;;3.30;2.30;;;27.70;46.40;;;;;;5097568;28;20028;-47
2021/06/17 12:07:30;;;;;;;2.20;2.10;;;27.70;46.40;;;;;;5097524;28;20039;-49
2021/06/17 12:10:23;;;;;;;2.25;2.05;;;27.70;46.40;;;;;;5097684;28;20035;-47
2021/06/17 12:12:58;;;;;;;2.40;2.20;;;27.70;46.40;;;;;;5097319;28;20047;-49
2021/06/17 12:15:29;;;;;;;2.10;1.90;;;27.70;46.40;;;;;;5097343;28;20051;-56
2021/06/17 12:18:00;;;;;;;3.72;2.20;;;27.70;46.40;;;;;;5097362;28;20123;-50
2021/06/17 12:20:31;;;;;;;2.30;2.10;;;27.70;46.50;;;;;;5097180;28;20040;-50
2021/06/17 12:22:57;;;;;;;3.17;2.20;;;27.70;46.40;;;;;;5097707;28;20028;-51
2021/06/17 12:25:24;;;;;;;2.60;2.20;;;27.70;46.40;;;;;;5097457;28;20342;-49
2021/06/17 12:27:52;;;;;;;2.30;2.10;;;27.80;46.50;;;;;;5097213;28;20032;-51
2021/06/17 12:30:32;;;;;;;2.30;2.10;;;27.80;46.50;;;;;;5096736;28;20470;-52
2021/06/17 12:33:07;;;;;;;2.13;2.03;;;27.80;47.10;;;;;;5096394;28;20347;-53
2021/06/17 12:35:38;;;;;;;2.17;1.98;;;27.80;46.40;;;;;;5092339;28;20035;-49
2021/06/17 12:38:05;;;;;;;3.10;2.22;;;27.80;46.40;;;;;;5090832;28;20058;-52
2021/06/17 12:40:35;;;;;;;2.22;2.03;;;27.80;46.50;;;;;;5095033;28;20024;-51
2021/06/17 12:43:11;;;;;;;2.20;2.00;;;27.90;46.50;;;;;;5092870;28;20380;-53
2021/06/17 12:45:38;;;;;;;2.28;2.08;;;27.90;46.50;;;;;;5093722;28;20063;-50
2021/06/17 12:48:19;;;;;;;2.30;2.10;;;27.90;46.50;;;;;;5094351;28;20025;-52
2021/06/17 12:53:46;;;;;;;1.77;1.67;;;27.90;46.50;;;;;;5092213;28;20020;-50
2021/06/17 12:56:12;;;;;;;1.70;1.60;;;28.00;46.50;;;;;;5093815;28;20101;-52
2021/06/17 12:58:53;;;;;;;2.13;1.80;;;28.00;46.50;;;;;;5093418;28;20027;-49
2021/06/17 13:01:22;;;;;;;1.98;1.88;;;28.00;46.30;;;;;;5092538;28;20020;-53
2021/06/17 13:03:50;;;;;;;1.92;1.70;;;28.00;46.30;;;;;;5091648;28;20363;-52
2021/06/17 13:06:37;;;;;;;2.10;1.70;;;28.00;46.20;;;;;;5094778;28;20024;-54
2021/06/17 13:09:05;;;;;;;4.03;1.85;;;28.10;46.10;;;;;;5093497;28;20352;-52
2021/06/17 13:11:33;;;;;;;2.25;1.70;;;28.10;46.10;;;;;;5094246;28;20385;-56
2021/06/17 13:14:00;;;;;;;1.73;1.50;;;28.10;46.00;;;;;;5095377;28;20465;-56
2021/06/17 13:16:27;;;;;;;2.13;1.90;;;28.10;45.90;;;;;;5086635;28;20359;-54